Time;durP1;ratioP1;P1;durP2;ratioP2;P2;SDS_P1;SDS_P2;PMS_P1;PMS_P2;Temp;Humidity;BMP_temperature;BMP_pressure;BME280_temperature;BME280_humidity;BME280_pressure;Samples;Min_cycle;Max_cycle;Signal;HPM_P1;HPM_P2
2021/09/16 00:01:37;;;;;;;31.73;27.50;;;19.60;99.90;;;;;;5094866;28;20452;-84
2021/09/16 00:04:03;;;;;;;31.52;28.13;;;19.50;99.90;;;;;;5076691;28;20430;-81
2021/09/16 00:06:29;;;;;;;30.98;26.88;;;19.50;99.90;;;;;;5095058;28;20376;-86
2021/09/16 00:08:55;;;;;;;32.77;29.27;;;19.50;99.90;;;;;;5077044;28;20374;-85
2021/09/16 00:11:20;;;;;;;30.15;26.95;;;19.40;99.90;;;;;;5097079;28;20960;-84
2021/09/16 00:13:46;;;;;;;30.83;27.53;;;19.50;99.90;;;;;;5078885;28;20401;-87
2021/09/16 00:16:12;;;;;;;32.80;27.57;;;19.50;99.90;;;;;;5081425;28;20384;-85
2021/09/16 00:18:37;;;;;;;31.92;28.60;;;19.40;99.90;;;;;;5081620;28;20430;-83
2021/09/16 00:21:03;;;;;;;32.55;27.35;;;19.40;99.90;;;;;;5101135;28;21136;-82
2021/09/16 00:23:29;;;;;;;29.47;26.43;;;19.50;99.90;;;;;;5101886;28;20373;-84
2021/09/16 00:25:54;;;;;;;30.13;27.02;;;19.50;99.90;;;;;;5099966;28;20364;-84
2021/09/16 00:28:20;;;;;;;33.30;27.53;;;19.50;99.90;;;;;;5099962;28;20376;-83
2021/09/16 00:30:46;;;;;;;31.73;28.30;;;19.50;99.90;;;;;;5081892;28;20380;-83
2021/09/16 00:33:11;;;;;;;33.97;28.80;;;19.40;99.90;;;;;;5099508;28;20403;-84
2021/09/16 00:35:37;;;;;;;32.85;29.35;;;19.40;99.90;;;;;;5093666;28;20869;-84
2021/09/16 00:38:02;;;;;;;33.87;30.10;;;19.40;99.90;;;;;;5073052;28;20376;-83
2021/09/16 00:40:28;;;;;;;33.17;29.50;;;19.40;99.90;;;;;;5091749;28;20368;-85
2021/09/16 00:42:54;;;;;;;34.20;30.00;;;19.40;99.90;;;;;;5092078;28;20398;-82
2021/09/16 00:45:19;;;;;;;38.60;30.43;;;19.30;99.90;;;;;;5091393;28;20434;-83
2021/09/16 00:47:47;;;;;;;35.42;31.15;;;19.30;99.90;;;;;;5091130;28;20373;-83
2021/09/16 00:50:15;;;;;;;33.50;29.92;;;19.30;99.90;;;;;;5073358;28;20377;-83
2021/09/16 00:52:41;;;;;;;35.28;31.08;;;19.40;99.90;;;;;;5091669;28;20396;-85
2021/09/16 00:55:08;;;;;;;37.47;32.27;;;19.30;99.90;;;;;;5073461;28;20408;-85
2021/09/16 00:57:34;;;;;;;40.35;33.67;;;19.30;99.90;;;;;;5073473;28;20372;-85
2021/09/16 01:00:04;;;;;;;35.97;31.65;;;19.30;99.90;;;;;;5072681;28;20531;-82
2021/09/16 01:02:29;;;;;;;34.85;30.92;;;19.20;99.90;;;;;;5090586;28;20541;-83
2021/09/16 01:04:55;;;;;;;34.28;30.63;;;19.30;99.90;;;;;;5070801;28;20468;-82
2021/09/16 01:07:21;;;;;;;31.50;28.23;;;19.30;99.90;;;;;;5071775;28;20365;-86
2021/09/16 01:09:47;;;;;;;31.65;28.35;;;19.30;99.90;;;;;;5090064;28;20471;-86
2021/09/16 01:12:12;;;;;;;31.57;28.37;;;19.20;99.90;;;;;;5089536;28;20464;-84
2021/09/16 01:14:38;;;;;;;30.67;27.58;;;19.10;99.90;;;;;;5089713;28;20878;-82
2021/09/16 01:17:04;;;;;;;31.30;28.17;;;19.10;99.90;;;;;;5071448;28;20377;-86
2021/09/16 01:19:30;;;;;;;31.90;28.58;;;19.00;99.90;;;;;;5071596;28;20882;-83
2021/09/16 01:21:56;;;;;;;31.85;28.50;;;19.00;99.90;;;;;;5071713;28;20387;-83
2021/09/16 01:24:22;;;;;;;31.30;28.10;;;19.00;99.90;;;;;;5089787;28;20377;-83
2021/09/16 01:26:47;;;;;;;30.30;27.25;;;19.00;99.90;;;;;;5089897;28;20379;-84
2021/09/16 01:29:14;;;;;;;33.50;29.38;;;19.10;99.90;;;;;;5089458;28;20369;-84
2021/09/16 01:31:41;;;;;;;30.55;27.58;;;19.00;99.90;;;;;;5089573;28;20423;-83
2021/09/16 01:34:09;;;;;;;31.00;27.95;;;19.00;99.90;;;;;;5071429;28;20407;-86
2021/09/16 01:36:36;;;;;;;31.65;28.35;;;19.00;99.90;;;;;;5090036;28;20430;-83
2021/09/16 01:39:05;;;;;;;32.95;29.42;;;19.00;99.90;;;;;;5089537;28;20400;-86
2021/09/16 01:41:31;;;;;;;33.55;28.80;;;18.80;99.90;;;;;;5090483;28;20373;-83
2021/09/16 01:43:57;;;;;;;30.47;26.70;;;18.90;99.90;;;;;;5071527;28;20388;-84
2021/09/16 01:46:22;;;;;;;30.17;26.98;;;18.80;99.90;;;;;;5072550;28;20381;-83
2021/09/16 01:48:48;;;;;;;28.83;25.80;;;18.80;99.90;;;;;;5089635;28;20377;-84
2021/09/16 01:51:14;;;;;;;31.80;26.58;;;18.80;99.90;;;;;;5090465;28;20466;-87
2021/09/16 01:53:39;;;;;;;30.13;25.73;;;18.60;99.90;;;;;;5090659;28;20882;-86
2021/09/16 01:56:05;;;;;;;29.67;26.53;;;18.70;99.90;;;;;;5073043;28;20845;-85
2021/09/16 01:58:30;;;;;;;33.10;27.33;;;18.70;99.90;;;;;;5090460;28;20377;-87
2021/09/16 02:00:57;;;;;;;30.97;27.30;;;18.60;99.90;;;;;;5090259;28;20377;-84
2021/09/16 02:03:23;;;;;;;31.20;26.95;;;18.60;99.90;;;;;;5073215;28;20736;-83
2021/09/16 02:05:49;;;;;;;31.60;27.13;;;18.60;99.90;;;;;;5073312;28;20396;-83
2021/09/16 02:08:14;;;;;;;33.22;28.80;;;18.70;99.90;;;;;;5091681;28;20467;-86
2021/09/16 02:10:40;;;;;;;32.67;27.70;;;18.60;99.90;;;;;;5090568;28;20369;-85
2021/09/16 02:13:05;;;;;;;32.97;28.63;;;18.70;99.90;;;;;;5089878;28;20540;-86
2021/09/16 02:15:31;;;;;;;32.67;28.37;;;18.60;99.90;;;;;;5074482;28;20415;-82
2021/09/16 02:17:57;;;;;;;33.60;28.60;;;18.60;99.90;;;;;;5075701;28;20388;-83
2021/09/16 02:20:22;;;;;;;32.93;28.20;;;18.60;99.90;;;;;;5094248;28;20400;-84
2021/09/16 02:22:48;;;;;;;33.40;29.00;;;18.60;99.90;;;;;;5077853;28;20380;-86
2021/09/16 02:25:14;;;;;;;34.95;29.55;;;18.70;99.90;;;;;;5094884;28;20376;-82
2021/09/16 02:27:39;;;;;;;33.87;28.87;;;18.70;99.90;;;;;;5093099;28;20405;-83
2021/09/16 02:30:06;;;;;;;34.08;28.70;;;18.70;99.90;;;;;;5075569;28;20376;-85
2021/09/16 02:32:32;;;;;;;35.70;29.73;;;18.80;99.90;;;;;;5099837;28;20384;-85
2021/09/16 02:34:58;;;;;;;35.03;29.47;;;18.70;99.90;;;;;;5077984;28;20909;-84
2021/09/16 02:37:23;;;;;;;34.92;29.52;;;18.70;99.90;;;;;;5096288;28;20376;-83
2021/09/16 02:39:49;;;;;;;37.40;30.60;;;18.80;99.90;;;;;;5077229;28;21318;-86
2021/09/16 02:42:15;;;;;;;35.83;30.70;;;18.80;99.90;;;;;;5093347;28;20462;-88
2021/09/16 02:44:40;;;;;;;37.33;31.43;;;18.80;99.90;;;;;;5074804;28;20471;-83
2021/09/16 02:47:06;;;;;;;42.37;33.77;;;18.80;99.90;;;;;;5093068;28;20905;-84
2021/09/16 02:49:32;;;;;;;38.85;32.78;;;18.80;99.90;;;;;;5074523;28;20392;-85
2021/09/16 02:51:58;;;;;;;42.50;33.70;;;18.80;99.90;;;;;;5093274;28;20373;-81
2021/09/16 02:54:23;;;;;;;37.97;32.20;;;18.80;99.90;;;;;;5074568;28;21071;-87
2021/09/16 02:56:49;;;;;;;43.97;34.53;;;18.80;99.90;;;;;;5092774;28;20427;-82
2021/09/16 02:59:15;;;;;;;38.92;33.33;;;18.80;99.90;;;;;;5092507;28;20372;-86
2021/09/16 03:01:41;;;;;;;48.38;37.20;;;18.80;99.90;;;;;;5074581;28;20368;-83
2021/09/16 03:04:07;;;;;;;47.38;36.47;;;18.80;99.90;;;;;;5074314;28;20894;-85
2021/09/16 03:06:32;;;;;;;49.00;38.77;;;18.70;99.90;;;;;;5092737;28;20437;-82
2021/09/16 03:08:58;;;;;;;48.40;38.80;;;18.80;99.90;;;;;;5073727;28;20724;-88
2021/09/16 03:11:24;;;;;;;53.00;41.47;;;18.80;99.90;;;;;;5093578;28;20433;-84
2021/09/16 03:13:49;;;;;;;51.65;40.70;;;18.80;99.90;;;;;;5075826;28;20407;-83
2021/09/16 03:16:15;;;;;;;53.90;41.47;;;18.90;99.90;;;;;;5076367;28;20511;-86
2021/09/16 03:18:40;;;;;;;53.10;42.47;;;18.80;99.90;;;;;;5074970;28;20364;-84
2021/09/16 03:21:06;;;;;;;62.97;45.97;;;18.80;99.90;;;;;;5075866;28;20411;-85
2021/09/16 03:23:32;;;;;;;63.90;47.00;;;18.80;99.90;;;;;;5095461;28;20387;-82
2021/09/16 03:25:58;;;;;;;65.20;46.87;;;18.70;99.90;;;;;;5076478;28;20461;-87
2021/09/16 03:28:23;;;;;;;63.38;46.20;;;18.70;99.90;;;;;;5076491;28;20380;-83
2021/09/16 03:30:49;;;;;;;70.03;50.25;;;18.70;99.90;;;;;;5093392;28;20368;-87
2021/09/16 03:33:15;;;;;;;66.50;49.23;;;18.60;99.90;;;;;;5074047;28;20403;-87
2021/09/16 03:35:41;;;;;;;71.00;51.00;;;18.60;99.90;;;;;;5092693;28;20479;-84
2021/09/16 03:38:06;;;;;;;76.72;53.67;;;18.60;99.90;;;;;;5091719;28;20411;-87
2021/09/16 03:40:32;;;;;;;73.60;51.60;;;18.50;99.90;;;;;;5073951;28;20402;-85
2021/09/16 03:42:58;;;;;;;84.30;54.10;;;18.60;99.90;;;;;;5091392;28;20384;-85
2021/09/16 03:45:23;;;;;;;75.13;52.30;;;18.50;99.90;;;;;;5092151;28;20364;-83
2021/09/16 03:47:49;;;;;;;70.70;51.38;;;18.60;99.90;;;;;;5073947;28;20383;-88
2021/09/16 03:50:15;;;;;;;75.83;52.97;;;18.50;99.90;;;;;;5092560;28;20726;-86
2021/09/16 03:52:41;;;;;;;71.93;52.88;;;18.40;99.90;;;;;;5073698;28;20411;-85
2021/09/16 03:55:07;;;;;;;73.45;52.60;;;18.40;99.90;;;;;;5091526;28;20404;-84
2021/09/16 03:57:32;;;;;;;64.53;48.28;;;18.40;99.90;;;;;;5091609;28;20387;-84
2021/09/16 03:59:58;;;;;;;69.60;51.50;;;18.40;99.90;;;;;;5091451;28;20373;-86
2021/09/16 04:02:24;;;;;;;66.43;49.15;;;18.40;99.90;;;;;;5091977;28;20387;-86
2021/09/16 04:04:49;;;;;;;64.70;47.67;;;18.50;99.90;;;;;;5073892;28;20385;-87
2021/09/16 04:07:15;;;;;;;63.08;47.35;;;18.60;99.90;;;;;;5091422;28;20380;-86
2021/09/16 04:09:40;;;;;;;59.40;46.50;;;18.50;99.90;;;;;;5091961;28;20375;-84
2021/09/16 04:12:06;;;;;;;61.47;46.07;;;18.40;99.90;;;;;;5073835;28;20920;-83
2021/09/16 04:14:33;;;;;;;59.90;44.28;;;18.30;99.90;;;;;;5092218;28;20397;-83
2021/09/16 04:16:59;;;;;;;56.80;44.00;;;18.30;99.90;;;;;;5091420;28;20445;-85
2021/09/16 04:19:24;;;;;;;51.43;41.73;;;18.30;99.90;;;;;;5092206;28;20434;-87
2021/09/16 04:21:50;;;;;;;49.53;40.30;;;18.30;99.90;;;;;;5073742;28;20376;-82
2021/09/16 04:24:17;;;;;;;50.20;38.50;;;18.20;99.90;;;;;;5092204;28;20364;-81
2021/09/16 04:26:44;;;;;;;46.35;38.50;;;18.30;99.90;;;;;;5095039;28;20364;-82
2021/09/16 04:29:10;;;;;;;44.90;36.15;;;18.20;99.90;;;;;;5074250;28;20391;-86
2021/09/16 04:31:36;;;;;;;38.53;33.08;;;18.10;99.90;;;;;;5091547;28;20377;-85
2021/09/16 04:34:02;;;;;;;38.40;31.23;;;18.10;99.90;;;;;;5092408;28;20541;-82
2021/09/16 04:36:27;;;;;;;36.80;29.83;;;18.10;99.90;;;;;;5091990;28;20372;-85
2021/09/16 04:38:53;;;;;;;33.07;28.87;;;18.10;99.90;;;;;;5092161;28;20375;-83
2021/09/16 04:41:19;;;;;;;32.55;28.88;;;18.00;99.90;;;;;;5074470;28;20896;-83
2021/09/16 04:43:44;;;;;;;31.10;26.20;;;17.90;99.90;;;;;;5091171;28;20824;-82
2021/09/16 04:46:10;;;;;;;23.60;21.13;;;17.90;99.90;;;;;;5072741;28;20402;-85
2021/09/16 04:48:36;;;;;;;21.85;18.35;;;17.80;99.90;;;;;;5073772;28;20416;-84
2021/09/16 04:51:01;;;;;;;23.00;19.50;;;17.80;99.90;;;;;;5074174;28;20379;-82
2021/09/16 04:53:27;;;;;;;22.10;19.67;;;17.80;99.90;;;;;;5092475;28;20743;-85
2021/09/16 04:55:52;;;;;;;21.13;18.83;;;17.80;99.90;;;;;;5074171;28;20519;-85
2021/09/16 04:58:18;;;;;;;20.73;18.52;;;17.80;99.90;;;;;;5093569;28;20870;-84
2021/09/16 05:00:44;;;;;;;20.23;18.23;;;17.90;99.90;;;;;;5092590;28;20403;-83
2021/09/16 05:03:09;;;;;;;22.70;20.20;;;17.90;99.90;;;;;;5091374;28;20394;-86
2021/09/16 05:05:35;;;;;;;22.50;19.30;;;17.80;99.90;;;;;;5090697;28;20998;-84
2021/09/16 05:08:00;;;;;;;23.50;20.70;;;17.80;99.90;;;;;;5091277;28;20406;-88
2021/09/16 05:10:26;;;;;;;25.27;22.67;;;17.90;99.90;;;;;;5091715;28;20413;-86
2021/09/16 05:12:51;;;;;;;27.53;23.37;;;17.70;99.90;;;;;;5074534;28;20881;-86
2021/09/16 05:15:17;;;;;;;25.77;21.45;;;17.70;99.90;;;;;;5092917;28;20521;-86
2021/09/16 05:17:43;;;;;;;20.87;18.40;;;17.70;99.90;;;;;;5091248;28;20748;-86
2021/09/16 05:20:09;;;;;;;22.13;17.60;;;17.70;99.90;;;;;;5073157;28;20460;-85
2021/09/16 05:22:34;;;;;;;20.10;17.83;;;17.60;99.90;;;;;;5093518;28;20777;-83
2021/09/16 05:25:00;;;;;;;23.03;17.87;;;17.60;99.90;;;;;;5092473;28;20380;-84
2021/09/16 05:27:26;;;;;;;21.75;17.77;;;17.50;99.90;;;;;;5091543;28;20391;-86
2021/09/16 05:29:51;;;;;;;22.83;19.48;;;17.60;99.90;;;;;;5091512;28;20369;-85
2021/09/16 05:32:18;;;;;;;21.67;18.07;;;17.60;99.90;;;;;;5090957;28;20738;-87
2021/09/16 05:34:44;;;;;;;24.17;20.45;;;17.70;99.90;;;;;;5090946;28;20400;-84
2021/09/16 05:37:10;;;;;;;25.87;20.97;;;17.60;99.90;;;;;;5092626;28;20375;-83
2021/09/16 05:39:35;;;;;;;26.63;22.63;;;17.70;99.90;;;;;;5090878;28;20380;-85
2021/09/16 05:42:01;;;;;;;25.77;22.30;;;17.70;99.90;;;;;;5072301;28;20387;-87
2021/09/16 05:44:26;;;;;;;23.10;20.55;;;17.70;99.90;;;;;;5074827;28;20404;-82
2021/09/16 05:46:52;;;;;;;22.27;19.60;;;17.70;99.90;;;;;;5091920;28;20910;-82
2021/09/16 05:49:18;;;;;;;22.27;19.00;;;17.70;99.90;;;;;;5090689;28;20734;-81
2021/09/16 05:51:43;;;;;;;23.97;19.67;;;17.70;99.90;;;;;;5072412;28;20373;-87
2021/09/16 05:54:09;;;;;;;21.92;19.45;;;17.60;99.90;;;;;;5090874;28;20411;-81
2021/09/16 05:56:34;;;;;;;21.50;19.27;;;17.70;99.90;;;;;;5072954;28;20385;-83
2021/09/16 05:59:00;;;;;;;21.02;18.73;;;17.70;99.90;;;;;;5072002;28;20963;-83
2021/09/16 06:01:25;;;;;;;22.63;18.73;;;17.70;99.90;;;;;;5090633;28;20368;-85
2021/09/16 06:03:51;;;;;;;22.90;18.75;;;17.80;99.90;;;;;;5072373;28;20376;-85
2021/09/16 06:06:18;;;;;;;21.60;18.40;;;17.80;99.90;;;;;;5090901;28;20414;-84
2021/09/16 06:08:43;;;;;;;20.23;18.02;;;17.70;99.90;;;;;;5072235;28;20412;-83
2021/09/16 06:11:10;;;;;;;20.83;18.37;;;17.80;99.90;;;;;;5071588;28;20411;-85
2021/09/16 06:13:35;;;;;;;20.73;18.52;;;17.80;99.90;;;;;;5072170;28;20404;-83
2021/09/16 06:16:01;;;;;;;21.10;18.50;;;17.80;99.90;;;;;;5090037;28;20380;-87
2021/09/16 06:18:26;;;;;;;21.00;18.57;;;17.80;99.90;;;;;;5071532;28;20954;-85
2021/09/16 06:20:52;;;;;;;21.88;19.25;;;17.90;99.90;;;;;;5072215;28;20739;-83
2021/09/16 06:23:18;;;;;;;20.90;18.23;;;17.80;99.90;;;;;;5072213;28;20408;-82
2021/09/16 06:25:43;;;;;;;19.73;17.70;;;18.00;99.90;;;;;;5090148;28;20368;-85
2021/09/16 06:28:09;;;;;;;19.57;17.50;;;17.90;99.90;;;;;;5072072;28;20939;-83
2021/09/16 06:30:35;;;;;;;18.50;16.58;;;17.90;99.90;;;;;;5071717;28;20863;-87
2021/09/16 06:33:00;;;;;;;18.45;16.30;;;18.00;99.90;;;;;;5089840;28;20381;-84
2021/09/16 06:35:26;;;;;;;18.47;16.67;;;18.10;99.90;;;;;;5089288;28;20422;-85
2021/09/16 06:37:52;;;;;;;18.33;16.43;;;18.00;99.90;;;;;;5089616;28;20850;-81
2021/09/16 06:40:17;;;;;;;16.60;14.90;;;18.10;99.90;;;;;;5089821;28;20445;-85
2021/09/16 06:42:43;;;;;;;18.65;14.88;;;18.20;99.90;;;;;;5076074;28;20416;-80
2021/09/16 06:45:10;;;;;;;15.70;14.00;;;18.30;99.90;;;;;;5086096;28;20388;-83
2021/09/16 06:47:36;;;;;;;15.18;13.57;;;18.40;99.90;;;;;;5089087;28;20889;-82
2021/09/16 06:50:03;;;;;;;13.68;12.23;;;18.40;99.90;;;;;;5098592;28;20384;-84
2021/09/16 06:52:28;;;;;;;17.15;12.85;;;18.30;99.90;;;;;;5094035;28;20381;-81
2021/09/16 06:54:56;;;;;;;13.13;11.27;;;18.20;99.90;;;;;;5093754;28;20480;-82
2021/09/16 06:57:22;;;;;;;13.38;10.80;;;18.40;99.90;;;;;;5091286;28;20405;-80
2021/09/16 06:59:48;;;;;;;12.18;10.35;;;18.40;99.90;;;;;;5089465;28;20407;-80
2021/09/16 07:02:13;;;;;;;11.87;10.00;;;18.50;99.90;;;;;;5089487;28;20855;-82
2021/09/16 07:04:39;;;;;;;11.13;9.87;;;18.60;99.90;;;;;;5093334;28;20375;-80
2021/09/16 07:07:06;;;;;;;12.77;10.07;;;18.70;99.90;;;;;;5074648;28;20738;-81
2021/09/16 07:09:32;;;;;;;13.38;9.57;;;18.70;99.90;;;;;;5093295;28;20412;-84
2021/09/16 07:11:59;;;;;;;10.33;9.33;;;18.70;99.90;;;;;;5092232;28;20419;-83
2021/09/16 07:14:27;;;;;;;10.20;8.45;;;18.70;99.90;;;;;;5089940;28;20460;-84
2021/09/16 07:16:59;;;;;;;9.85;8.95;;;18.70;99.90;;;;;;5075220;28;20711;-83
2021/09/16 07:19:25;;;;;;;9.57;8.25;;;18.70;99.90;;;;;;5093159;28;20402;-83
2021/09/16 07:21:52;;;;;;;8.75;7.45;;;18.70;99.90;;;;;;5075277;28;20416;-83
2021/09/16 07:24:18;;;;;;;9.30;6.70;;;18.70;99.90;;;;;;5092584;28;20376;-82
2021/09/16 07:26:50;;;;;;;8.83;7.33;;;18.80;99.90;;;;;;5082110;28;20413;-84
2021/09/16 07:29:19;;;;;;;9.57;7.35;;;18.90;99.90;;;;;;5113198;28;21259;-83
2021/09/16 07:31:46;;;;;;;7.93;6.72;;;19.10;99.90;;;;;;5094714;28;20386;-84
2021/09/16 07:34:12;;;;;;;8.80;7.13;;;19.10;99.90;;;;;;5095143;28;20413;-82
2021/09/16 07:36:39;;;;;;;8.33;6.73;;;19.10;99.90;;;;;;5093652;28;20383;-82
2021/09/16 07:39:05;;;;;;;7.40;6.45;;;19.30;99.90;;;;;;5094753;28;20391;-86
2021/09/16 07:41:30;;;;;;;8.27;6.63;;;19.50;99.90;;;;;;5112923;28;20806;-82
2021/09/16 07:43:56;;;;;;;6.50;5.77;;;19.60;99.90;;;;;;5111431;28;20391;-83
2021/09/16 07:46:22;;;;;;;6.03;5.45;;;19.70;99.90;;;;;;5113003;28;20856;-84
2021/09/16 07:48:48;;;;;;;6.13;5.20;;;19.70;99.90;;;;;;5111690;28;20367;-85
2021/09/16 07:51:14;;;;;;;7.93;5.23;;;19.70;99.90;;;;;;5093678;28;20375;-83
2021/09/16 07:53:40;;;;;;;6.70;5.53;;;19.90;99.90;;;;;;5112238;28;20397;-83
2021/09/16 07:56:05;;;;;;;7.43;5.03;;;19.90;99.90;;;;;;5095098;28;20378;-84
2021/09/16 07:58:31;;;;;;;5.40;4.73;;;19.80;99.90;;;;;;5094327;28;20378;-82
2021/09/16 08:00:56;;;;;;;7.68;4.40;;;19.80;99.90;;;;;;5111981;28;20367;-84
2021/09/16 08:03:22;;;;;;;4.90;4.30;;;19.70;99.90;;;;;;5094161;28;20387;-83
2021/09/16 08:05:48;;;;;;;5.17;4.30;;;19.50;99.90;;;;;;5112595;28;20367;-83
2021/09/16 08:08:13;;;;;;;4.97;4.25;;;19.50;99.90;;;;;;5112252;28;20375;-82
2021/09/16 08:10:39;;;;;;;6.50;4.10;;;19.60;99.90;;;;;;5112092;28;20407;-86
2021/09/16 08:13:05;;;;;;;9.88;4.40;;;19.70;99.90;;;;;;5093432;28;20405;-84
2021/09/16 08:15:30;;;;;;;5.05;4.03;;;19.70;99.90;;;;;;5111915;28;20974;-82
2021/09/16 08:17:58;;;;;;;7.40;3.90;;;19.60;99.90;;;;;;5111215;28;20390;-82
2021/09/16 08:20:23;;;;;;;6.20;3.45;;;19.60;99.90;;;;;;5092442;28;20465;-83
2021/09/16 08:22:49;;;;;;;4.85;3.72;;;19.50;99.90;;;;;;5110241;28;20470;-82
2021/09/16 08:25:16;;;;;;;4.47;3.20;;;19.50;99.90;;;;;;5111468;28;20374;-83
2021/09/16 08:27:42;;;;;;;6.28;3.10;;;19.40;99.90;;;;;;5111371;28;20393;-84
2021/09/16 08:30:10;;;;;;;7.70;3.03;;;19.50;99.90;;;;;;5111282;28;20367;-85
2021/09/16 08:32:36;;;;;;;3.85;2.40;;;19.50;99.90;;;;;;5111996;28;20371;-81
2021/09/16 08:35:04;;;;;;;5.05;2.40;;;19.70;99.90;;;;;;5093176;28;20484;-84
2021/09/16 08:37:31;;;;;;;4.88;2.22;;;19.70;99.90;;;;;;5076670;28;20469;-85
2021/09/16 08:39:56;;;;;;;3.10;1.90;;;19.70;99.90;;;;;;5094254;28;20377;-85
2021/09/16 08:42:26;;;;;;;3.33;1.73;;;19.90;99.90;;;;;;5104029;28;20385;-84
2021/09/16 08:44:54;;;;;;;2.90;1.58;;;20.40;99.90;;;;;;5076037;28;20374;-84
2021/09/16 08:47:21;;;;;;;4.60;1.70;;;20.40;99.90;;;;;;5112054;28;20724;-82
2021/09/16 08:49:47;;;;;;;6.43;1.60;;;20.00;99.90;;;;;;5112136;28;20375;-83
2021/09/16 08:52:12;;;;;;;3.33;1.45;;;19.70;99.90;;;;;;5111901;28;20508;-86
2021/09/16 08:54:40;;;;;;;1.53;1.20;;;19.30;99.90;;;;;;5103187;28;20493;-86
2021/09/16 08:57:06;;;;;;;4.05;1.40;;;19.70;99.90;;;;;;5088050;28;20384;-83
2021/09/16 08:59:34;;;;;;;2.60;1.40;;;20.00;99.90;;;;;;5086872;28;20376;-83
2021/09/16 09:02:02;;;;;;;2.83;1.27;;;20.30;99.90;;;;;;5088263;28;20377;-85
2021/09/16 09:04:27;;;;;;;2.10;1.20;;;20.40;99.90;;;;;;5069632;28;20376;-84
2021/09/16 09:07:06;;;;;;;2.60;1.30;;;20.20;99.90;;;;;;5069983;28;20433;-82
2021/09/16 09:09:35;;;;;;;3.47;1.70;;;20.00;99.90;;;;;;5069730;28;20396;-86
2021/09/16 09:12:02;;;;;;;3.35;1.25;;;20.00;99.90;;;;;;5089571;28;20434;-82
2021/09/16 09:14:37;;;;;;;5.25;1.50;;;20.10;99.90;;;;;;5097466;28;20414;-85
2021/09/16 09:17:17;;;;;;;2.40;0.88;;;19.80;99.90;;;;;;5089734;28;20379;-83
2021/09/16 09:19:42;;;;;;;2.00;0.93;;;20.00;99.90;;;;;;5087848;28;20384;-84
2021/09/16 09:22:08;;;;;;;2.53;0.90;;;20.40;99.90;;;;;;5072502;28;20726;-83
2021/09/16 09:24:42;;;;;;;4.10;1.00;;;20.60;99.90;;;;;;5090940;28;20384;-84
2021/09/16 09:27:22;;;;;;;2.90;0.93;;;20.70;99.90;;;;;;5072038;28;20463;-85
2021/09/16 09:30:27;;;;;;;2.20;0.95;;;20.50;99.90;;;;;;5090948;28;20376;-84
2021/09/16 09:33:01;;;;;;;2.75;0.90;;;20.30;99.90;;;;;;5009180;28;20443;-82
2021/09/16 09:35:30;;;;;;;5.35;1.15;;;20.10;99.90;;;;;;5063934;28;20445;-85
2021/09/16 09:38:04;;;;;;;3.57;0.97;;;20.00;99.90;;;;;;5070479;28;20373;-87
2021/09/16 09:40:38;;;;;;;2.17;0.90;;;20.00;99.90;;;;;;5053387;28;20434;-84
2021/09/16 09:43:37;;;;;;;2.22;0.85;;;19.90;99.90;;;;;;5052746;28;20919;-83
2021/09/16 09:46:16;;;;;;;3.35;1.10;;;19.70;99.90;;;;;;5026863;28;20427;-83
2021/09/16 09:48:57;;;;;;;2.43;1.13;;;19.50;99.90;;;;;;5070903;28;20462;-83
2021/09/16 09:51:41;;;;;;;3.78;1.10;;;19.50;99.90;;;;;;5071080;28;20378;-84
2021/09/16 09:54:22;;;;;;;2.90;0.90;;;19.60;99.90;;;;;;5070158;28;20398;-89
2021/09/16 09:57:09;;;;;;;2.72;0.80;;;19.70;99.90;;;;;;5070201;28;20374;-86
2021/09/16 10:00:05;;;;;;;2.53;1.00;;;19.80;99.90;;;;;;5070436;28;20444;-83
2021/09/16 10:02:32;;;;;;;1.67;0.90;;;19.80;99.90;;;;;;5070340;28;20370;-87
2021/09/16 10:04:58;;;;;;;2.35;1.00;;;19.70;99.90;;;;;;5058521;28;20389;-83
2021/09/16 10:07:33;;;;;;;3.05;0.88;;;19.60;99.90;;;;;;5089100;28;20800;-84
2021/09/16 10:10:00;;;;;;;2.97;1.13;;;19.70;99.90;;;;;;5070973;28;20414;-85
2021/09/16 10:12:26;;;;;;;3.05;0.70;;;19.90;99.90;;;;;;5072658;28;20800;-85
2021/09/16 10:14:52;;;;;;;2.45;0.90;;;20.10;99.90;;;;;;5089976;28;20404;-86
2021/09/16 10:17:18;;;;;;;3.92;1.05;;;20.40;99.90;;;;;;5089031;28;20371;-84
2021/09/16 10:19:44;;;;;;;4.00;0.97;;;20.60;99.90;;;;;;5090222;28;20376;-85
2021/09/16 10:22:14;;;;;;;1.63;0.80;;;20.90;99.90;;;;;;5072537;28;20389;-83
2021/09/16 10:24:40;;;;;;;4.63;1.40;;;21.00;99.90;;;;;;5089664;28;20961;-85
2021/09/16 10:27:35;;;;;;;2.88;1.17;;;20.80;99.90;;;;;;5071138;28;20385;-87
2021/09/16 10:30:24;;;;;;;2.58;0.77;;;20.60;99.90;;;;;;5060590;28;20380;-85
2021/09/16 10:33:01;;;;;;;4.10;1.20;;;20.60;99.90;;;;;;5068844;28;20412;-84
2021/09/16 10:35:27;;;;;;;1.30;0.70;;;20.80;99.90;;;;;;5050392;28;20771;-82
2021/09/16 10:37:53;;;;;;;3.08;1.13;;;20.90;99.90;;;;;;5072621;28;20894;-85
2021/09/16 10:40:22;;;;;;;2.40;0.77;;;20.90;99.90;;;;;;5073563;28;20370;-83
2021/09/16 10:42:53;;;;;;;2.35;1.00;;;20.60;99.90;;;;;;5054745;28;20772;-83
2021/09/16 10:45:36;;;;;;;1.95;0.63;;;20.60;99.90;;;;;;5072674;28;20362;-84
2021/09/16 10:48:14;;;;;;;3.65;0.95;;;20.60;99.90;;;;;;5057013;28;20385;-86
2021/09/16 10:50:48;;;;;;;5.38;1.02;;;20.70;99.90;;;;;;5072844;28;20424;-84
2021/09/16 10:53:34;;;;;;;1.63;0.85;;;20.80;99.90;;;;;;5052186;28;20911;-85
2021/09/16 10:56:01;;;;;;;4.45;1.00;;;20.80;99.90;;;;;;5054267;28;20810;-85
2021/09/16 10:58:28;;;;;;;2.78;0.80;;;20.80;99.90;;;;;;5072558;28;20374;-82
2021/09/16 11:00:54;;;;;;;2.55;0.77;;;20.90;99.90;;;;;;5072683;28;20380;-84
2021/09/16 11:03:21;;;;;;;1.58;0.60;;;20.70;99.90;;;;;;5056125;28;20481;-83
2021/09/16 11:05:53;;;;;;;2.27;0.80;;;20.90;99.90;;;;;;5056246;28;20457;-85
2021/09/16 11:08:20;;;;;;;2.75;0.80;;;20.90;99.90;;;;;;5055001;28;20425;-85
2021/09/16 11:10:48;;;;;;;3.70;0.95;;;21.00;99.90;;;;;;5054973;28;20409;-86
2021/09/16 11:13:42;;;;;;;1.08;0.60;;;20.90;99.90;;;;;;5071055;28;20432;-83
2021/09/16 11:16:09;;;;;;;1.63;0.60;;;21.10;99.90;;;;;;5072674;28;20416;-86
2021/09/16 11:18:34;;;;;;;3.03;0.70;;;21.30;99.90;;;;;;5072269;28;21595;-86
2021/09/16 11:21:03;;;;;;;1.05;0.68;;;21.50;99.90;;;;;;5072179;28;20803;-86
2021/09/16 11:23:49;;;;;;;2.53;0.60;;;21.50;99.90;;;;;;5072613;28;20938;-88
2021/09/16 11:26:19;;;;;;;1.63;0.60;;;21.30;99.90;;;;;;5072288;28;20386;-86
2021/09/16 11:28:55;;;;;;;2.45;0.68;;;21.10;99.90;;;;;;5073100;28;20377;-84
2021/09/16 11:31:20;;;;;;;2.35;0.77;;;21.10;99.90;;;;;;5093567;28;20429;-83
2021/09/16 11:33:46;;;;;;;3.03;0.80;;;21.00;99.90;;;;;;5094190;28;20414;-86
2021/09/16 11:36:12;;;;;;;2.50;0.70;;;21.20;99.90;;;;;;5113020;28;20417;-84
2021/09/16 11:38:37;;;;;;;2.90;0.70;;;21.30;99.90;;;;;;5112879;28;20888;-87
2021/09/16 11:41:04;;;;;;;2.70;0.70;;;21.50;99.90;;;;;;5113878;28;20446;-84
2021/09/16 11:43:30;;;;;;;1.90;0.75;;;21.50;99.90;;;;;;5112837;28;20410;-86
2021/09/16 11:45:56;;;;;;;1.20;0.55;;;21.50;99.90;;;;;;5096838;28;20733;-85
2021/09/16 11:48:24;;;;;;;1.27;0.70;;;21.40;99.90;;;;;;5112065;28;20425;-84
2021/09/16 11:51:09;;;;;;;1.50;0.77;;;21.50;99.90;;;;;;5112777;28;20900;-83
2021/09/16 11:53:36;;;;;;;1.48;0.70;;;21.40;99.90;;;;;;5091643;28;20403;-84
2021/09/16 11:56:04;;;;;;;1.42;0.68;;;21.20;99.90;;;;;;5123721;28;20390;-83
2021/09/16 11:58:38;;;;;;;1.88;0.80;;;21.30;99.90;;;;;;5097816;28;20412;-82
2021/09/16 12:01:05;;;;;;;2.17;0.75;;;21.30;99.90;;;;;;5115429;28;20363;-82
2021/09/16 12:03:32;;;;;;;1.95;0.70;;;21.10;99.90;;;;;;5096832;28;20710;-83
2021/09/16 12:05:58;;;;;;;2.28;0.90;;;20.90;99.90;;;;;;5095100;28;20379;-85
2021/09/16 12:08:31;;;;;;;1.65;0.80;;;20.90;99.90;;;;;;5094077;28;20397;-86
2021/09/16 12:11:05;;;;;;;2.75;1.02;;;20.90;99.90;;;;;;5112438;28;20856;-81
2021/09/16 12:13:33;;;;;;;2.88;0.90;;;21.10;99.90;;;;;;5093984;28;20409;-83
2021/09/16 12:16:08;;;;;;;4.90;0.90;;;21.20;99.90;;;;;;5112647;28;20378;-86
2021/09/16 12:18:35;;;;;;;2.85;0.95;;;21.50;99.90;;;;;;5112493;28;20463;-82
2021/09/16 12:21:02;;;;;;;2.63;1.00;;;21.50;99.90;;;;;;5080296;28;20447;-86
2021/09/16 12:23:28;;;;;;;3.88;1.00;;;21.40;99.90;;;;;;5076152;28;20758;-84
2021/09/16 12:26:00;;;;;;;4.25;1.35;;;21.20;99.90;;;;;;5075391;28;20380;-84
2021/09/16 12:28:27;;;;;;;3.08;0.85;;;21.20;99.90;;;;;;5093318;28;20375;-82
2021/09/16 12:30:53;;;;;;;3.45;1.10;;;21.30;99.90;;;;;;5075014;28;20415;-87
2021/09/16 12:33:38;;;;;;;4.03;1.15;;;21.30;99.90;;;;;;5093847;28;20427;-82
2021/09/16 12:36:11;;;;;;;2.10;0.90;;;21.40;99.90;;;;;;5074628;28;20897;-84
2021/09/16 12:38:58;;;;;;;3.78;1.25;;;21.50;99.90;;;;;;5093106;28;20404;-82